sensor_id;sensor_type;location;lat;lon;timestamp;pressure;altitude;pressure_sealevel;temperature;humidity
23677;BME280;31493;49.058;12.190;2023-03-16T00:00:43;96473.00;;;-1.71;100.00
23677;BME280;31493;49.058;12.190;2023-03-16T00:03:10;96471.53;;;-1.89;100.00
23677;BME280;31493;49.058;12.190;2023-03-16T00:05:44;96462.31;;;-1.98;100.00
23677;BME280;31493;49.058;12.190;2023-03-16T00:08:12;96469.13;;;-2.00;100.00
23677;BME280;31493;49.058;12.190;2023-03-16T00:10:39;96475.81;;;-1.94;100.00
23677;BME280;31493;49.058;12.190;2023-03-16T00:13:12;96463.94;;;-1.92;100.00
23677;BME280;31493;49.058;12.190;2023-03-16T00:15:41;96470.78;;;-1.99;100.00
23677;BME280;31493;49.058;12.190;2023-03-16T00:18:08;96474.03;;;-1.87;100.00
23677;BME280;31493;49.058;12.190;2023-03-16T00:20:35;96478.38;;;-1.97;100.00
23677;BME280;31493;49.058;12.190;2023-03-16T00:23:02;96485.31;;;-2.08;100.00
23677;BME280;31493;49.058;12.190;2023-03-16T00:25:29;96484.47;;;-2.12;100.00
23677;BME280;31493;49.058;12.190;2023-03-16T00:27:58;96485.38;;;-2.16;100.00
23677;BME280;31493;49.058;12.190;2023-03-16T00:30:28;96491.28;;;-2.14;100.00
23677;BME280;31493;49.058;12.190;2023-03-16T00:32:57;96494.66;;;-2.15;100.00
23677;BME280;31493;49.058;12.190;2023-03-16T00:35:24;96494.75;;;-2.24;100.00
23677;BME280;31493;49.058;12.190;2023-03-16T00:37:51;96488.72;;;-2.12;100.00
23677;BME280;31493;49.058;12.190;2023-03-16T00:40:22;96493.06;;;-2.24;100.00
23677;BME280;31493;49.058;12.190;2023-03-16T00:42:49;96496.34;;;-2.16;100.00
23677;BME280;31493;49.058;12.190;2023-03-16T00:45:16;96495.50;;;-2.14;100.00
23677;BME280;31493;49.058;12.190;2023-03-16T00:47:43;96497.13;;;-2.09;100.00
23677;BME280;31493;49.058;12.190;2023-03-16T00:50:11;96501.44;;;-2.14;100.00
23677;BME280;31493;49.058;12.190;2023-03-16T00:52:38;96491.91;;;-1.98;100.00
23677;BME280;31493;49.058;12.190;2023-03-16T00:55:07;96491.41;;;-2.26;100.00
23677;BME280;31493;49.058;12.190;2023-03-16T00:57:34;96494.66;;;-2.15;100.00
23677;BME280;31493;49.058;12.190;2023-03-16T01:00:02;96497.97;;;-2.10;100.00
23677;BME280;31493;49.058;12.190;2023-03-16T01:02:37;96502.06;;;-1.95;100.00
23677;BME280;31493;49.058;12.190;2023-03-16T01:05:05;96491.03;;;-1.94;100.00
23677;BME280;31493;49.058;12.190;2023-03-16T01:07:35;96485.13;;;-1.95;100.00
23677;BME280;31493;49.058;12.190;2023-03-16T01:10:02;96491.81;;;-1.89;100.00
23677;BME280;31493;49.058;12.190;2023-03-16T01:12:29;96491.13;;;-2.03;100.00
23677;BME280;31493;49.058;12.190;2023-03-16T01:14:57;96483.66;;;-2.12;100.00
23677;BME280;31493;49.058;12.190;2023-03-16T01:17:24;96484.38;;;-2.04;100.00
23677;BME280;31493;49.058;12.190;2023-03-16T01:19:51;96481.09;;;-2.11;100.00
23677;BME280;31493;49.058;12.190;2023-03-16T01:22:19;96496.44;;;-2.23;100.00
23677;BME280;31493;49.058;12.190;2023-03-16T01:24:47;96481.91;;;-2.07;100.00
23677;BME280;31493;49.058;12.190;2023-03-16T01:27:14;96480.19;;;-2.07;100.00
23677;BME280;31493;49.058;12.190;2023-03-16T01:29:42;96471.78;;;-2.10;100.00
23677;BME280;31493;49.058;12.190;2023-03-16T01:32:09;96482.72;;;-2.05;100.00
23677;BME280;31493;49.058;12.190;2023-03-16T01:34:37;96466.72;;;-2.12;100.00
23677;BME280;31493;49.058;12.190;2023-03-16T01:37:04;96477.75;;;-2.14;100.00
23677;BME280;31493;49.058;12.190;2023-03-16T01:39:31;96472.66;;;-2.13;100.00
23677;BME280;31493;49.058;12.190;2023-03-16T01:41:59;96471.56;;;-1.94;100.00
23677;BME280;31493;49.058;12.190;2023-03-16T01:44:27;96473.31;;;-1.99;100.00
23677;BME280;31493;49.058;12.190;2023-03-16T01:46:55;96467.25;;;-1.87;100.00
23677;BME280;31493;49.058;12.190;2023-03-16T01:49:24;96476.66;;;-1.97;100.00
23677;BME280;31493;49.058;12.190;2023-03-16T01:51:54;96471.06;;;-2.23;100.00
23677;BME280;31493;49.058;12.190;2023-03-16T01:54:27;96480.31;;;-2.18;100.00
23677;BME280;31493;49.058;12.190;2023-03-16T01:57:00;96472.88;;;-2.34;100.00
23677;BME280;31493;49.058;12.190;2023-03-16T01:59:32;96469.34;;;-2.18;100.00
23677;BME280;31493;49.058;12.190;2023-03-16T02:02:00;96460.91;;;-2.20;100.00
23677;BME280;31493;49.058;12.190;2023-03-16T02:04:37;96466.13;;;-2.34;100.00
23677;BME280;31493;49.058;12.190;2023-03-16T02:07:07;96475.41;;;-2.31;100.00
23677;BME280;31493;49.058;12.190;2023-03-16T02:09:35;96467.69;;;-2.22;100.00
23677;BME280;31493;49.058;12.190;2023-03-16T02:12:06;96464.31;;;-2.23;100.00
23677;BME280;31493;49.058;12.190;2023-03-16T02:14:33;96474.34;;;-2.15;100.00
23677;BME280;31493;49.058;12.190;2023-03-16T02:17:01;96471.31;;;-2.43;100.00
23677;BME280;31493;49.058;12.190;2023-03-16T02:19:36;96482.16;;;-2.33;100.00
23677;BME280;31493;49.058;12.190;2023-03-16T02:22:09;96477.19;;;-2.41;100.00
23677;BME280;31493;49.058;12.190;2023-03-16T02:24:38;96480.59;;;-2.44;100.00
23677;BME280;31493;49.058;12.190;2023-03-16T02:27:09;96475.97;;;-2.06;100.00
23677;BME280;31493;49.058;12.190;2023-03-16T02:29:57;96475.56;;;-2.47;100.00
23677;BME280;31493;49.058;12.190;2023-03-16T02:32:28;96483.03;;;-2.34;100.00
23677;BME280;31493;49.058;12.190;2023-03-16T02:34:58;96489.97;;;-2.50;100.00
23677;BME280;31493;49.058;12.190;2023-03-16T02:37:26;96497.72;;;-2.64;100.00
23677;BME280;31493;49.058;12.190;2023-03-16T02:39:53;96485.09;;;-2.68;100.00
23677;BME280;31493;49.058;12.190;2023-03-16T02:42:22;96485.69;;;-2.47;100.00
23677;BME280;31493;49.058;12.190;2023-03-16T02:44:53;96491.47;;;-2.32;100.00
23677;BME280;31493;49.058;12.190;2023-03-16T02:47:27;96480.75;;;-2.57;100.00
23677;BME280;31493;49.058;12.190;2023-03-16T02:49:56;96476.13;;;-2.22;100.00
23677;BME280;31493;49.058;12.190;2023-03-16T02:52:23;96486.34;;;-2.28;100.00
23677;BME280;31493;49.058;12.190;2023-03-16T02:54:50;96481.25;;;-2.25;100.00
23677;BME280;31493;49.058;12.190;2023-03-16T02:57:17;96474.84;;;-2.59;100.00
23677;BME280;31493;49.058;12.190;2023-03-16T02:59:44;96488.38;;;-2.60;100.00
23677;BME280;31493;49.058;12.190;2023-03-16T03:02:11;96485.81;;;-2.57;100.00
23677;BME280;31493;49.058;12.190;2023-03-16T03:04:40;96480.94;;;-2.76;100.00
23677;BME280;31493;49.058;12.190;2023-03-16T03:07:11;96486.09;;;-2.86;100.00
23677;BME280;31493;49.058;12.190;2023-03-16T03:09:39;96489.44;;;-2.84;100.00
23677;BME280;31493;49.058;12.190;2023-03-16T03:12:07;96491.78;;;-2.61;100.00
23677;BME280;31493;49.058;12.190;2023-03-16T03:14:35;96500.31;;;-2.72;100.00
23677;BME280;31493;49.058;12.190;2023-03-16T03:17:04;96508.75;;;-2.69;100.00
23677;BME280;31493;49.058;12.190;2023-03-16T03:19:32;96496.16;;;-2.80;100.00
23677;BME280;31493;49.058;12.190;2023-03-16T03:22:01;96496.97;;;-2.77;100.00
23677;BME280;31493;49.058;12.190;2023-03-16T03:24:31;96503.69;;;-2.73;100.00
23677;BME280;31493;49.058;12.190;2023-03-16T03:27:00;96493.31;;;-2.45;100.00
23677;BME280;31493;49.058;12.190;2023-03-16T03:29:30;96489.91;;;-2.46;100.00
23677;BME280;31493;49.058;12.190;2023-03-16T03:31:59;96477.03;;;-2.27;100.00
23677;BME280;31493;49.058;12.190;2023-03-16T03:34:26;96478.13;;;-2.48;100.00
23677;BME280;31493;49.058;12.190;2023-03-16T03:36:53;96488.38;;;-2.60;100.00
23677;BME280;31493;49.058;12.190;2023-03-16T03:39:22;96468.06;;;-2.59;100.00
23677;BME280;31493;49.058;12.190;2023-03-16T03:41:49;96478.34;;;-2.69;100.00
23677;BME280;31493;49.058;12.190;2023-03-16T03:44:19;96475.69;;;-2.60;100.00
23677;BME280;31493;49.058;12.190;2023-03-16T03:46:46;96475.03;;;-2.78;100.00
23677;BME280;31493;49.058;12.190;2023-03-16T03:49:13;96473.16;;;-2.59;100.00
23677;BME280;31493;49.058;12.190;2023-03-16T03:51:40;96475.91;;;-2.80;100.00
23677;BME280;31493;49.058;12.190;2023-03-16T03:54:08;96462.34;;;-2.78;100.00
23677;BME280;31493;49.058;12.190;2023-03-16T03:56:36;96469.97;;;-2.79;100.00
23677;BME280;31493;49.058;12.190;2023-03-16T03:59:03;96470.06;;;-2.88;100.00
23677;BME280;31493;49.058;12.190;2023-03-16T04:01:30;96480.16;;;-2.85;100.00
23677;BME280;31493;49.058;12.190;2023-03-16T04:03:57;96480.94;;;-2.79;100.00
23677;BME280;31493;49.058;12.190;2023-03-16T04:06:24;96486.16;;;-2.92;100.00
23677;BME280;31493;49.058;12.190;2023-03-16T04:08:51;96481.06;;;-2.91;100.00
23677;BME280;31493;49.058;12.190;2023-03-16T04:11:20;96477.56;;;-2.78;100.00
23677;BME280;31493;49.058;12.190;2023-03-16T04:13:49;96490.75;;;-2.44;100.00
23677;BME280;31493;49.058;12.190;2023-03-16T04:16:16;96495.38;;;-2.87;100.00
23677;BME280;31493;49.058;12.190;2023-03-16T04:18:44;96488.75;;;-3.00;100.00
23677;BME280;31493;49.058;12.190;2023-03-16T04:21:13;96490.63;;;-3.25;100.00
23677;BME280;31493;49.058;12.190;2023-03-16T04:23:41;96497.38;;;-3.24;100.00
23677;BME280;31493;49.058;12.190;2023-03-16T04:26:09;96500.66;;;-3.11;100.00
23677;BME280;31493;49.058;12.190;2023-03-16T04:28:36;96509.94;;;-3.13;100.00
23677;BME280;31493;49.058;12.190;2023-03-16T04:31:06;96506.56;;;-3.14;100.00
23677;BME280;31493;49.058;12.190;2023-03-16T04:33:34;96495.59;;;-3.11;100.00
23677;BME280;31493;49.058;12.190;2023-03-16T04:36:01;96510.75;;;-3.07;100.00
23677;BME280;31493;49.058;12.190;2023-03-16T04:38:29;96496.28;;;-2.95;100.00
23677;BME280;31493;49.058;12.190;2023-03-16T04:40:58;96501.19;;;-2.77;100.00
23677;BME280;31493;49.058;12.190;2023-03-16T04:43:26;96495.53;;;-3.08;100.00
23677;BME280;31493;49.058;12.190;2023-03-16T04:45:53;96502.41;;;-3.22;100.00
23677;BME280;31493;49.058;12.190;2023-03-16T04:48:21;96496.56;;;-3.31;100.00
23677;BME280;31493;49.058;12.190;2023-03-16T04:50:50;96493.28;;;-3.45;100.00
23677;BME280;31493;49.058;12.190;2023-03-16T04:53:17;96485.66;;;-3.37;100.00
23677;BME280;31493;49.058;12.190;2023-03-16T04:55:44;96491.53;;;-3.35;100.00
23677;BME280;31493;49.058;12.190;2023-03-16T04:58:11;96474.69;;;-3.39;100.00
23677;BME280;31493;49.058;12.190;2023-03-16T05:00:39;96473.06;;;-3.48;100.00
23677;BME280;31493;49.058;12.190;2023-03-16T05:03:06;96461.25;;;-3.52;100.00
23677;BME280;31493;49.058;12.190;2023-03-16T05:05:36;96464.50;;;-3.30;100.00
23677;BME280;31493;49.058;12.190;2023-03-16T05:08:03;96462.72;;;-3.17;100.00
23677;BME280;31493;49.058;12.190;2023-03-16T05:10:31;96458.56;;;-3.29;100.00
23677;BME280;31493;49.058;12.190;2023-03-16T05:12:59;96456.94;;;-3.35;100.00
23677;BME280;31493;49.058;12.190;2023-03-16T05:15:26;96456.06;;;-3.34;100.00
23677;BME280;31493;49.058;12.190;2023-03-16T05:17:53;96466.09;;;-3.21;100.00
23677;BME280;31493;49.058;12.190;2023-03-16T05:20:21;96467.53;;;-2.87;100.00
23677;BME280;31493;49.058;12.190;2023-03-16T05:22:50;96474.38;;;-3.01;100.00
23677;BME280;31493;49.058;12.190;2023-03-16T05:25:18;96458.34;;;-3.02;100.00
23677;BME280;31493;49.058;12.190;2023-03-16T05:27:47;96462.34;;;-2.76;100.00
23677;BME280;31493;49.058;12.190;2023-03-16T05:30:16;96463.25;;;-2.85;100.00
23677;BME280;31493;49.058;12.190;2023-03-16T05:32:44;96475.13;;;-2.87;100.00
23677;BME280;31493;49.058;12.190;2023-03-16T05:35:12;96463.34;;;-2.92;100.00
23677;BME280;31493;49.058;12.190;2023-03-16T05:37:39;96472.59;;;-2.90;100.00
23677;BME280;31493;49.058;12.190;2023-03-16T05:40:10;96467.31;;;-2.64;100.00
23677;BME280;31493;49.058;12.190;2023-03-16T05:42:42;96486.00;;;-2.76;100.00
23677;BME280;31493;49.058;12.190;2023-03-16T05:45:11;96476.81;;;-2.90;100.00
23677;BME280;31493;49.058;12.190;2023-03-16T05:47:39;96474.28;;;-2.90;100.00
23677;BME280;31493;49.058;12.190;2023-03-16T05:50:10;96482.69;;;-2.82;100.00
23677;BME280;31493;49.058;12.190;2023-03-16T05:52:38;96474.09;;;-2.69;100.00
23677;BME280;31493;49.058;12.190;2023-03-16T05:55:08;96468.19;;;-2.69;100.00
23677;BME280;31493;49.058;12.190;2023-03-16T05:57:35;96465.81;;;-2.86;100.00
23677;BME280;31493;49.058;12.190;2023-03-16T06:00:04;96472.38;;;-2.65;100.00
23677;BME280;31493;49.058;12.190;2023-03-16T06:02:37;96464.78;;;-2.67;100.00
23677;BME280;31493;49.058;12.190;2023-03-16T06:05:04;96472.22;;;-2.52;100.00
23677;BME280;31493;49.058;12.190;2023-03-16T06:07:32;96461.38;;;-2.66;100.00
23677;BME280;31493;49.058;12.190;2023-03-16T06:09:59;96467.16;;;-2.52;100.00
23677;BME280;31493;49.058;12.190;2023-03-16T06:12:28;96476.38;;;-2.43;100.00
23677;BME280;31493;49.058;12.190;2023-03-16T06:14:55;96472.22;;;-2.50;100.00
23677;BME280;31493;49.058;12.190;2023-03-16T06:17:22;96479.00;;;-2.51;100.00
23677;BME280;31493;49.058;12.190;2023-03-16T06:19:49;96468.16;;;-2.63;100.00
23677;BME280;31493;49.058;12.190;2023-03-16T06:22:16;96462.06;;;-2.49;100.00
23677;BME280;31493;49.058;12.190;2023-03-16T06:24:43;96470.50;;;-2.48;100.00
23677;BME280;31493;49.058;12.190;2023-03-16T06:27:11;96483.16;;;-2.47;100.00
23677;BME280;31493;49.058;12.190;2023-03-16T06:29:40;96470.78;;;-1.99;100.00
23677;BME280;31493;49.058;12.190;2023-03-16T06:32:07;96481.22;;;-2.23;100.00
23677;BME280;31493;49.058;12.190;2023-03-16T06:34:34;96489.03;;;-2.41;100.00
23677;BME280;31493;49.058;12.190;2023-03-16T06:37:01;96480.50;;;-2.34;100.00
23677;BME280;31493;49.058;12.190;2023-03-16T06:39:29;96478.78;;;-2.34;100.00
23677;BME280;31493;49.058;12.190;2023-03-16T06:41:56;96483.81;;;-2.26;100.00
23677;BME280;31493;49.058;12.190;2023-03-16T06:44:23;96485.44;;;-2.21;100.00
23677;BME280;31493;49.058;12.190;2023-03-16T06:46:51;96490.41;;;-2.13;100.00
23677;BME280;31493;49.058;12.190;2023-03-16T06:49:18;96498.88;;;-2.14;100.00
23677;BME280;31493;49.058;12.190;2023-03-16T06:51:45;96489.78;;;-2.32;100.00
23677;BME280;31493;49.058;12.190;2023-03-16T06:54:13;96492.03;;;-2.07;100.00
23677;BME280;31493;49.058;12.190;2023-03-16T06:56:40;96499.03;;;-2.28;100.00
23677;BME280;31493;49.058;12.190;2023-03-16T06:59:07;96498.06;;;-2.18;100.00
23677;BME280;31493;49.058;12.190;2023-03-16T07:01:34;96499.97;;;-2.36;100.00
23677;BME280;31493;49.058;12.190;2023-03-16T07:04:02;96499.84;;;-2.24;100.00
23677;BME280;31493;49.058;12.190;2023-03-16T07:06:29;96500.22;;;-1.84;100.00
23677;BME280;31493;49.058;12.190;2023-03-16T07:08:57;96499.53;;;-1.98;100.00
23677;BME280;31493;49.058;12.190;2023-03-16T07:11:26;96507.91;;;-1.92;100.00
23677;BME280;31493;49.058;12.190;2023-03-16T07:13:53;96502.47;;;-1.63;100.00
23677;BME280;31493;49.058;12.190;2023-03-16T07:16:20;96514.09;;;-2.12;100.00
23677;BME280;31493;49.058;12.190;2023-03-16T07:18:47;96507.97;;;-1.98;100.00
23677;BME280;31493;49.058;12.190;2023-03-16T07:21:16;96505.50;;;-2.01;100.00
23677;BME280;31493;49.058;12.190;2023-03-16T07:23:43;96509.72;;;-2.00;100.00
23677;BME280;31493;49.058;12.190;2023-03-16T07:26:10;96508.31;;;-1.56;100.00
23677;BME280;31493;49.058;12.190;2023-03-16T07:28:37;96501.56;;;-1.57;100.00
23677;BME280;31493;49.058;12.190;2023-03-16T07:31:05;96511.03;;;-1.70;100.00
23677;BME280;31493;49.058;12.190;2023-03-16T07:33:33;96503.88;;;-1.40;100.00
23677;BME280;31493;49.058;12.190;2023-03-16T07:36:00;96506.16;;;-1.23;100.00
23677;BME280;31493;49.058;12.190;2023-03-16T07:38:31;96510.88;;;-1.00;100.00
23677;BME280;31493;49.058;12.190;2023-03-16T07:40:59;96508.84;;;-0.78;100.00
23677;BME280;31493;49.058;12.190;2023-03-16T07:43:26;96504.22;;;-0.57;100.00
23677;BME280;31493;49.058;12.190;2023-03-16T07:45:54;96493.41;;;-0.68;100.00
23677;BME280;31493;49.058;12.190;2023-03-16T07:48:21;96504.16;;;-0.52;100.00
23677;BME280;31493;49.058;12.190;2023-03-16T07:50:48;96514.19;;;-0.43;100.00
23677;BME280;31493;49.058;12.190;2023-03-16T07:53:16;96502.94;;;-0.31;100.00
23677;BME280;31493;49.058;12.190;2023-03-16T07:55:45;96506.19;;;-0.23;100.00
23677;BME280;31493;49.058;12.190;2023-03-16T07:58:12;96518.84;;;-0.20;100.00
23677;BME280;31493;49.058;12.190;2023-03-16T08:00:39;96520.16;;;-0.01;100.00
23677;BME280;31493;49.058;12.190;2023-03-16T08:03:07;96525.94;;;0.09;100.00
23677;BME280;31493;49.058;12.190;2023-03-16T08:05:34;96518.22;;;0.12;100.00
23677;BME280;31493;49.058;12.190;2023-03-16T08:08:02;96521.50;;;0.17;100.00
23677;BME280;31493;49.058;12.190;2023-03-16T08:10:29;96529.28;;;0.13;100.00
23677;BME280;31493;49.058;12.190;2023-03-16T08:12:57;96530.38;;;0.41;100.00
23677;BME280;31493;49.058;12.190;2023-03-16T08:15:24;96530.91;;;0.57;100.00
23677;BME280;31493;49.058;12.190;2023-03-16T08:17:51;96529.22;;;0.56;100.00
23677;BME280;31493;49.058;12.190;2023-03-16T08:20:18;96519.66;;;0.66;100.00
23677;BME280;31493;49.058;12.190;2023-03-16T08:22:45;96520.72;;;0.57;100.00
23677;BME280;31493;49.058;12.190;2023-03-16T08:25:14;96529.81;;;0.27;100.00
23677;BME280;31493;49.058;12.190;2023-03-16T08:27:41;96525.94;;;0.51;100.00
23677;BME280;31493;49.058;12.190;2023-03-16T08:30:13;96528.22;;;0.63;100.00
23677;BME280;31493;49.058;12.190;2023-03-16T08:32:40;96531.25;;;0.40;100.00
23677;BME280;31493;49.058;12.190;2023-03-16T08:35:09;96510.66;;;0.51;100.00
23677;BME280;31493;49.058;12.190;2023-03-16T08:37:38;96515.00;;;0.85;100.00
23677;BME280;31493;49.058;12.190;2023-03-16T08:40:07;96512.25;;;0.55;100.00
23677;BME280;31493;49.058;12.190;2023-03-16T08:42:38;96514.06;;;0.89;100.00
23677;BME280;31493;49.058;12.190;2023-03-16T08:45:06;96514.38;;;0.73;100.00
23677;BME280;31493;49.058;12.190;2023-03-16T08:47:37;96520.88;;;0.48;100.00
23677;BME280;31493;49.058;12.190;2023-03-16T08:50:06;96510.31;;;0.66;100.00
23677;BME280;31493;49.058;12.190;2023-03-16T08:52:34;96515.22;;;0.75;100.00
23677;BME280;31493;49.058;12.190;2023-03-16T08:55:02;96506.69;;;0.38;100.00
23677;BME280;31493;49.058;12.190;2023-03-16T08:57:30;96502.59;;;0.69;100.00
23677;BME280;31493;49.058;12.190;2023-03-16T08:59:57;96491.91;;;0.53;100.00
23677;BME280;31493;49.058;12.190;2023-03-16T09:02:24;96488.63;;;0.87;100.00
23677;BME280;31493;49.058;12.190;2023-03-16T09:04:53;96493.34;;;0.65;100.00
23677;BME280;31493;49.058;12.190;2023-03-16T09:07:20;96497.94;;;0.88;100.00
23677;BME280;31493;49.058;12.190;2023-03-16T09:09:47;96507.09;;;0.95;100.00
23677;BME280;31493;49.058;12.190;2023-03-16T09:12:15;96512.81;;;0.69;100.00
23677;BME280;31493;49.058;12.190;2023-03-16T09:14:42;96503.72;;;0.95;100.00
23677;BME280;31493;49.058;12.190;2023-03-16T09:17:10;96503.59;;;1.01;100.00
23677;BME280;31493;49.058;12.190;2023-03-16T09:19:37;96496.91;;;0.95;100.00
23677;BME280;31493;49.058;12.190;2023-03-16T09:22:06;96498.97;;;1.15;100.00
23677;BME280;31493;49.058;12.190;2023-03-16T09:24:33;96488.78;;;1.17;100.00
23677;BME280;31493;49.058;12.190;2023-03-16T09:27:00;96486.13;;;1.20;100.00
23677;BME280;31493;49.058;12.190;2023-03-16T09:29:27;96498.28;;;1.08;100.00
23677;BME280;31493;49.058;12.190;2023-03-16T09:31:54;96506.09;;;1.02;100.00
23677;BME280;31493;49.058;12.190;2023-03-16T09:34:21;96513.88;;;1.32;100.00
23677;BME280;31493;49.058;12.190;2023-03-16T09:36:48;96496.03;;;1.65;100.00
23677;BME280;31493;49.058;12.190;2023-03-16T09:39:17;96509.72;;;1.95;100.00
23677;BME280;31493;49.058;12.190;2023-03-16T09:41:47;96518.19;;;1.64;100.00
23677;BME280;31493;49.058;12.190;2023-03-16T09:44:30;96514.16;;;1.55;100.00
23677;BME280;31493;49.058;12.190;2023-03-16T09:47:00;96513.56;;;1.78;100.00
23677;BME280;31493;49.058;12.190;2023-03-16T09:49:33;96517.53;;;1.88;100.00
23677;BME280;31493;49.058;12.190;2023-03-16T09:52:08;96509.84;;;1.90;100.00
23677;BME280;31493;49.058;12.190;2023-03-16T09:54:47;96505.88;;;2.11;100.00
23677;BME280;31493;49.058;12.190;2023-03-16T09:57:23;96505.25;;;2.03;100.00
23677;BME280;31493;49.058;12.190;2023-03-16T09:59:52;96503.19;;;1.84;100.00
23677;BME280;31493;49.058;12.190;2023-03-16T10:02:43;96515.00;;;1.56;100.00
23677;BME280;31493;49.058;12.190;2023-03-16T10:05:14;96515.22;;;2.41;100.00
23677;BME280;31493;49.058;12.190;2023-03-16T10:07:48;96509.81;;;2.23;100.00
23677;BME280;31493;49.058;12.190;2023-03-16T10:10:29;96513.09;;;2.26;100.00
23677;BME280;31493;49.058;12.190;2023-03-16T10:13:04;96518.59;;;2.12;100.00
23677;BME280;31493;49.058;12.190;2023-03-16T10:15:39;96499.78;;;2.45;100.00
23677;BME280;31493;49.058;12.190;2023-03-16T10:18:12;96504.72;;;1.90;100.00
23677;BME280;31493;49.058;12.190;2023-03-16T10:20:42;96511.81;;;2.11;100.00
23677;BME280;31493;49.058;12.190;2023-03-16T10:23:16;96517.72;;;2.13;100.00
23677;BME280;31493;49.058;12.190;2023-03-16T10:25:47;96500.16;;;1.38;100.00
23677;BME280;31493;49.058;12.190;2023-03-16T10:28:16;96486.25;;;1.49;100.00
23677;BME280;31493;49.058;12.190;2023-03-16T10:30:46;96495.13;;;2.00;100.00
23677;BME280;31493;49.058;12.190;2023-03-16T10:33:19;96492.84;;;1.89;100.00
23677;BME280;31493;49.058;12.190;2023-03-16T10:35:51;96500.91;;;2.36;100.00
23677;BME280;31493;49.058;12.190;2023-03-16T10:38:31;96495.13;;;2.59;100.00
23677;BME280;31493;49.058;12.190;2023-03-16T10:41:05;96492.00;;;3.05;100.00
23677;BME280;31493;49.058;12.190;2023-03-16T10:43:41;96491.66;;;2.89;100.00
23677;BME280;31493;49.058;12.190;2023-03-16T10:46:10;96487.59;;;2.82;100.00
23677;BME280;31493;49.058;12.190;2023-03-16T10:48:38;96484.06;;;3.14;100.00
23677;BME280;31493;49.058;12.190;2023-03-16T10:51:07;96486.16;;;3.02;100.00
23677;BME280;31493;49.058;12.190;2023-03-16T10:53:39;96493.47;;;3.12;100.00
23677;BME280;31493;49.058;12.190;2023-03-16T10:56:11;96495.31;;;2.81;100.00
23677;BME280;31493;49.058;12.190;2023-03-16T10:58:41;96497.16;;;3.04;100.00
23677;BME280;31493;49.058;12.190;2023-03-16T11:01:16;96486.38;;;2.38;100.00
23677;BME280;31493;49.058;12.190;2023-03-16T11:03:48;96495.88;;;2.90;100.00
23677;BME280;31493;49.058;12.190;2023-03-16T11:06:19;96496.16;;;2.53;100.00
23677;BME280;31493;49.058;12.190;2023-03-16T11:08:47;96490.31;;;3.57;100.00
23677;BME280;31493;49.058;12.190;2023-03-16T11:11:20;96481.97;;;2.99;100.00
23677;BME280;31493;49.058;12.190;2023-03-16T11:13:55;96488.78;;;2.72;100.00
23677;BME280;31493;49.058;12.190;2023-03-16T11:16:26;96477.59;;;3.54;100.00
23677;BME280;31493;49.058;12.190;2023-03-16T11:18:58;96473.50;;;3.75;100.00
23677;BME280;31493;49.058;12.190;2023-03-16T11:21:36;96467.41;;;4.02;99.48
23677;BME280;31493;49.058;12.190;2023-03-16T11:24:14;96482.25;;;3.93;99.72
23677;BME280;31493;49.058;12.190;2023-03-16T11:26:50;96464.84;;;4.26;98.15
23677;BME280;31493;49.058;12.190;2023-03-16T11:29:22;96457.00;;;4.30;94.54
23677;BME280;31493;49.058;12.190;2023-03-16T11:31:55;96454.16;;;5.04;94.45
23677;BME280;31493;49.058;12.190;2023-03-16T11:34:27;96446.84;;;5.15;91.79
23677;BME280;31493;49.058;12.190;2023-03-16T11:36:56;96443.59;;;4.22;91.26
23677;BME280;31493;49.058;12.190;2023-03-16T11:39:32;96437.63;;;4.89;95.29
23677;BME280;31493;49.058;12.190;2023-03-16T11:42:31;96444.44;;;6.14;86.26
23677;BME280;31493;49.058;12.190;2023-03-16T11:45:08;96427.19;;;6.35;84.18
23677;BME280;31493;49.058;12.190;2023-03-16T11:47:59;96425.53;;;5.35;81.82
23677;BME280;31493;49.058;12.190;2023-03-16T11:50:35;96416.06;;;6.15;81.18
23677;BME280;31493;49.058;12.190;2023-03-16T11:53:11;96413.56;;;6.52;80.99
23677;BME280;31493;49.058;12.190;2023-03-16T11:55:44;96424.50;;;4.97;81.40
23677;BME280;31493;49.058;12.190;2023-03-16T11:58:24;96423.06;;;6.50;79.86
23677;BME280;31493;49.058;12.190;2023-03-16T12:01:00;96417.34;;;5.66;81.51
23677;BME280;31493;49.058;12.190;2023-03-16T12:04:10;96408.06;;;6.95;81.72
23677;BME280;31493;49.058;12.190;2023-03-16T12:06:52;96410.34;;;7.02;78.02
23677;BME280;31493;49.058;12.190;2023-03-16T12:09:51;96404.31;;;6.47;78.07
23677;BME280;31493;49.058;12.190;2023-03-16T12:12:39;96394.97;;;7.17;77.72
23677;BME280;31493;49.058;12.190;2023-03-16T12:15:22;96421.13;;;6.17;79.46
23677;BME280;31493;49.058;12.190;2023-03-16T12:17:54;96409.19;;;6.90;78.09
23677;BME280;31493;49.058;12.190;2023-03-16T12:20:25;96401.75;;;6.29;82.54
23677;BME280;31493;49.058;12.190;2023-03-16T12:22:57;96412.03;;;5.09;78.68
23677;BME280;31493;49.058;12.190;2023-03-16T12:25:28;96408.72;;;6.27;79.31
23677;BME280;31493;49.058;12.190;2023-03-16T12:27:59;96403.72;;;6.79;78.65
23677;BME280;31493;49.058;12.190;2023-03-16T12:30:36;96401.19;;;5.23;75.24
23677;BME280;31493;49.058;12.190;2023-03-16T12:33:11;96408.44;;;5.54;72.86
23677;BME280;31493;49.058;12.190;2023-03-16T12:35:45;96397.28;;;6.87;75.11
23677;BME280;31493;49.058;12.190;2023-03-16T12:38:35;96388.16;;;6.27;73.47
23677;BME280;31493;49.058;12.190;2023-03-16T12:41:12;96382.84;;;6.30;70.23
23677;BME280;31493;49.058;12.190;2023-03-16T12:43:51;96373.47;;;6.29;73.34
23677;BME280;31493;49.058;12.190;2023-03-16T12:46:33;96388.28;;;5.45;72.63
23677;BME280;31493;49.058;12.190;2023-03-16T12:49:05;96377.16;;;6.78;69.26
23677;BME280;31493;49.058;12.190;2023-03-16T12:51:33;96380.66;;;6.94;65.93
23677;BME280;31493;49.058;12.190;2023-03-16T12:54:02;96367.88;;;6.38;67.64
23677;BME280;31493;49.058;12.190;2023-03-16T12:56:31;96358.25;;;7.14;65.07
23677;BME280;31493;49.058;12.190;2023-03-16T12:59:02;96373.41;;;7.20;65.33